KAPN

Alpena County Regional Airport

Alpena, Michigan, USA
METAR KAPN 242354Z AUTO 00000KT 1/4SM -RA FG OVC075 11/11 A3003 RMK AO2 SLP173 P0001 60003 T01060106 10150 20106 58006
Observed Flight Rules
Apr-24 @ 23:54 UTC (49 minutes ago) Instrument Flight Rules
Visibility Clouds Conditions
1/4 miles
  • Overcast at 7,500' AGL
  • Light Rain
  • Fog
Temperatures Readings Precipitation
Current 11°C / 52°F
Dewpoint 11°C / 52°F
Humidity 100%
Altimeter 30.03" Hg
Pressure 1017.3 hPa
Elevation 210
Current Rain 0.01
METAR KAPN 242354Z AUTO 00000KT 1/4SM -RA FG OVC075 11/11 A3003 RMK AO2 SLP173 P0001 60003 T01060106 10150 20106 58006
Observed Flight Rules
Apr-24 @ 23:54 UTC
(49 minutes ago)
LIFR
Clouds
  • Overcast at 7,500' AGL
Conditions
  • Light Rain
  • Fog
Temperature Dewpoint
11°C / 52°F 11°C / 52°F
Humidity Altimeter Pressure
100% 30.03" Hg 1017.3 hPa
Current Rain
0.01